Bulford, United Kingdom
Current Conditions -  °F | °C
As of 11:50 PM on Saturday 25 Oct 2014 (Local Time) from EGDM Reporting Station
Overcast Overcast  
Wind Chill: 52°   Ceiling: 3200
Heat Index: 52°   Visibility: 6mi
Dew Point: 48°   Wind: 9mph
Humidity: 88%   Direction: 210°SSW
Pressure: 30.15"   Gusts: NA
Location:  51.19°N, 1.76°W
Report Text: EGDM 252250Z AUTO 21008KT 9999 OVC032/// 11/09 Q1021
Loading
Personal Weather Stations






























Interactive Weather Map
Tropical Storm Tracking
New forecast layout! Learn more

10-Day Weather Forecast

Advertisements
Track Severe Weather on mobile